Here is the Quick Look data you requested

The Data originates at the National Weather Service, and is made available here by the UAlbany Department of Atmospheric and Environmental Sciences

Surface Observations

KBID 250156Z AUTO 07007KT 10SM -RA SCT075 OVC090 08/08 A3018 RMK AO2 RAB55
 SLP226 T00830078=
KPVD 250151Z 00000KT 10SM OVC110 10/08 A3020 RMK AO2 SLP228 T01000078=
KSFZ 250156Z AUTO VRB03KT 10SM CLR 09/04 A3019 RMK AO2 SLPNO T00940044=
KUUU 250153Z AUTO 12003KT 10SM OVC110 09/08 A3019 RMK AO2 SLP222 T00940078=
KWST 250153Z AUTO 09006KT 10SM OVC095 10/08 A3019 RMK AO2 SLP221 T01000083=